Αρχική σελίδα
METAR-TAF:

METAR-TAF

Αεροδρόμια :

17 Rosado

Mossoró, Ρίο Γκράντε ντο Νόρτε, Βραζιλία

γεωγραφικό πλάτος: 05-12S, γεωγραφικό μήκος: 037-22W, υψόμετρο: 23 μ

Παρών καιρός

Η αναφορά έγινε 30 λεπτά πριν, στις 19:00 UTC
Άνεμος 7 kt από ΝA
Θερμοκρασία 32°C
Υγρασία 56%
Πίεση 1010 hPa
Ορατότητα 10 χλμ και άνω
Αρκετά νέφη σε ύψος 3000 πόδια

METAR: SBMS 201900Z 13007KT 9999 BKN030 32/22 Q1010

Χρόνος: 16:30 (19:30 UTC)


TAF: λείπει

Μετεωρολογικές αναφορές και προγνώσεις για περισσότερα από 4000 αεροδρόμια (δελτία METAR και TAF).

Οι διαθέσιμοι σταθμοί απεικονίζονται στο χάρτη με κίτρινες και κόκκινες κουκκίδες.

Μετακινήστε το ποντίκι πάνω από τις κουκκίδες για να δείτε το όνομα του σταθμού.

Στη συνέχεια, κάντε κλικ για να δείτε τις μετεωρολογικές αναφορές και τις προγνώσεις καιρού.

Για να αλλάξετε το χάρτη: κάντε κλικ στα πράσινα κουμπιά με τον μαύρο σταυρό για να ζουμάρετε, στο πράσινο κουμπί με την παύλα για να αφαιρέσετε το ζουμ ή στα πράσινα βέλη για να αντιπαραβάλλετε χάρτες.


METAR-TAF: